createdAt,value
2022-11-15T00:00:57.209Z,4.50
2022-11-15T00:02:17.073Z,4.10
2022-11-15T00:03:36.990Z,3.80
2022-11-15T00:04:57.245Z,4.10
2022-11-15T00:06:17.265Z,4.07
2022-11-15T00:07:55.101Z,4.20
2022-11-15T00:09:15.457Z,3.97
2022-11-15T00:10:35.313Z,4.20
2022-11-15T00:11:55.047Z,3.83
2022-11-15T00:13:14.891Z,4.10
2022-11-15T00:14:34.690Z,4.37
2022-11-15T00:15:57.470Z,3.80
2022-11-15T00:17:17.321Z,4.40
2022-11-15T00:18:38.065Z,3.83
2022-11-15T00:19:58.133Z,4.30
2022-11-15T00:21:18.447Z,3.53
2022-11-15T00:22:38.353Z,3.93
2022-11-15T00:23:59.211Z,4.00
2022-11-15T00:25:19.337Z,4.13
2022-11-15T00:26:39.157Z,4.13
2022-11-15T00:27:59.645Z,4.10
2022-11-15T00:29:19.618Z,4.03
2022-11-15T00:30:39.356Z,4.10
2022-11-15T00:31:59.171Z,4.20
2022-11-15T00:33:19.030Z,4.20
2022-11-15T00:34:38.903Z,4.00
2022-11-15T00:36:03.417Z,4.20
2022-11-15T00:37:23.170Z,3.70
2022-11-15T00:38:42.957Z,3.87
2022-11-15T00:40:02.765Z,3.67
2022-11-15T00:41:22.942Z,4.20
2022-11-15T00:42:43.021Z,4.00
2022-11-15T00:44:02.975Z,4.00
2022-11-15T00:45:23.023Z,3.97
2022-11-15T00:46:43.367Z,3.70
2022-11-15T00:48:03.211Z,3.57
2022-11-15T00:49:23.049Z,3.53
2022-11-15T00:50:42.893Z,3.60
2022-11-15T00:52:02.625Z,3.60
2022-11-15T00:53:22.454Z,3.50
2022-11-15T00:54:42.561Z,3.60
2022-11-15T00:56:02.264Z,3.50
2022-11-15T00:57:22.224Z,3.60
2022-11-15T00:58:42.202Z,3.63
2022-11-15T01:00:02.174Z,3.60
2022-11-15T01:01:21.964Z,3.70
2022-11-15T01:02:41.646Z,3.87
2022-11-15T01:04:01.821Z,3.60
2022-11-15T01:05:21.975Z,3.70
2022-11-15T01:06:41.824Z,3.33
2022-11-15T01:08:01.797Z,3.97
2022-11-15T01:09:21.590Z,3.90
2022-11-15T01:10:41.485Z,3.83
2022-11-15T01:12:01.415Z,3.53
2022-11-15T01:13:21.272Z,3.60
2022-11-15T01:14:41.070Z,3.60
2022-11-15T01:16:06.600Z,4.00
2022-11-15T01:17:26.498Z,3.60
2022-11-15T01:18:46.683Z,3.77
2022-11-15T01:20:07.001Z,3.50
2022-11-15T01:21:27.028Z,3.97
2022-11-15T01:22:47.058Z,3.87
2022-11-15T01:24:06.975Z,3.60
2022-11-15T01:25:27.060Z,3.37
2022-11-15T01:26:47.102Z,3.60
2022-11-15T01:28:07.304Z,3.37
2022-11-15T01:29:27.227Z,3.63
2022-11-15T01:30:47.154Z,3.67
2022-11-15T01:32:07.035Z,3.43
2022-11-15T01:33:27.250Z,3.60
2022-11-15T01:34:47.371Z,3.47
2022-11-15T01:36:08.800Z,3.60
2022-11-15T01:37:28.779Z,3.60
2022-11-15T01:38:53.848Z,4.03
2022-11-15T01:40:13.940Z,3.70
2022-11-15T01:41:34.252Z,4.17
2022-11-15T01:42:54.371Z,3.63
2022-11-15T01:44:33.147Z,3.87
2022-11-15T01:45:59.023Z,3.83
2022-11-15T01:47:25.891Z,3.30
2022-11-15T01:48:46.138Z,3.53
2022-11-15T01:50:10.735Z,3.70
2022-11-15T01:51:33.069Z,3.87
2022-11-15T01:52:53.039Z,3.40
2022-11-15T01:54:16.656Z,3.57
2022-11-15T01:55:37.160Z,3.90
2022-11-15T01:57:00.624Z,3.27
2022-11-15T01:58:20.499Z,3.43
2022-11-15T01:59:42.424Z,3.50
2022-11-15T02:01:02.135Z,3.67
2022-11-15T02:02:21.991Z,3.60
2022-11-15T02:03:49.466Z,3.57
2022-11-15T02:05:09.474Z,3.77
2022-11-15T02:06:29.353Z,4.13
2022-11-15T02:07:49.542Z,3.90
2022-11-15T02:09:09.956Z,3.50
2022-11-15T02:10:30.220Z,3.40
2022-11-15T02:11:51.471Z,3.57
2022-11-15T02:13:11.527Z,3.30
2022-11-15T02:14:31.959Z,3.30
2022-11-15T02:16:10.423Z,3.37
2022-11-15T02:17:48.632Z,3.33
2022-11-15T02:19:27.542Z,3.37
2022-11-15T02:20:50.337Z,3.60
2022-11-15T02:22:10.263Z,3.43
2022-11-15T02:23:42.425Z,3.77
2022-11-15T02:25:02.426Z,3.70
2022-11-15T02:26:34.413Z,3.70
2022-11-15T02:28:06.839Z,3.70
2022-11-15T02:29:39.617Z,3.80
2022-11-15T02:31:11.324Z,3.77
2022-11-15T02:32:31.181Z,3.57
2022-11-15T02:33:51.019Z,3.97
2022-11-15T02:35:10.963Z,3.50
2022-11-15T02:36:36.516Z,3.40
2022-11-15T02:38:03.035Z,3.40
2022-11-15T02:39:28.459Z,3.43
2022-11-15T02:40:48.117Z,4.00
2022-11-15T02:42:47.052Z,3.37
2022-11-15T02:44:08.952Z,3.27
2022-11-15T02:45:31.248Z,3.30
2022-11-15T02:47:09.492Z,3.13
2022-11-15T02:48:31.128Z,4.00
2022-11-15T02:49:52.134Z,3.73
2022-11-15T02:51:13.285Z,3.63
2022-11-15T02:52:33.360Z,3.50
2022-11-15T02:53:53.158Z,3.90
2022-11-15T02:55:30.080Z,4.17
2022-11-15T02:56:50.657Z,3.63
2022-11-15T02:58:30.555Z,3.63
2022-11-15T02:59:50.713Z,4.00
2022-11-15T03:01:23.000Z,3.50
2022-11-15T03:02:49.239Z,3.50
2022-11-15T03:04:12.098Z,3.50
2022-11-15T03:05:31.868Z,3.67
2022-11-15T03:06:59.989Z,3.37
2022-11-15T03:08:27.205Z,3.80
2022-11-15T03:09:57.639Z,3.97
2022-11-15T03:11:21.348Z,3.80
2022-11-15T03:12:58.275Z,4.33
2022-11-15T03:14:32.629Z,4.17
2022-11-15T03:16:04.623Z,3.97
2022-11-15T03:17:29.405Z,4.00
2022-11-15T03:18:52.684Z,4.10
2022-11-15T03:20:13.216Z,3.80
2022-11-15T03:21:33.981Z,4.10
2022-11-15T03:22:55.343Z,3.87
2022-11-15T03:24:23.269Z,3.57
2022-11-15T03:25:48.424Z,3.93
2022-11-15T03:27:10.774Z,3.80
2022-11-15T03:28:36.064Z,3.90
2022-11-15T03:29:59.656Z,3.80
2022-11-15T03:31:39.207Z,3.93
2022-11-15T03:33:01.229Z,3.53
2022-11-15T03:34:40.498Z,3.50
2022-11-15T03:36:00.501Z,3.67
2022-11-15T03:37:23.156Z,3.77
2022-11-15T03:38:44.164Z,3.23
2022-11-15T03:40:04.687Z,3.77
2022-11-15T03:41:45.240Z,3.93
2022-11-15T03:43:30.024Z,3.33
2022-11-15T03:44:50.051Z,3.70
2022-11-15T03:46:14.829Z,3.73
2022-11-15T03:47:46.745Z,3.53
2022-11-15T03:49:29.900Z,3.40
2022-11-15T03:50:49.967Z,3.73
2022-11-15T03:52:11.433Z,3.83
2022-11-15T03:53:32.997Z,4.00
2022-11-15T03:54:54.534Z,3.23
2022-11-15T03:56:14.692Z,3.10
2022-11-15T03:57:34.648Z,3.17
2022-11-15T03:58:54.552Z,3.30
2022-11-15T04:00:14.422Z,3.50
2022-11-15T04:01:34.839Z,3.37
2022-11-15T04:02:54.748Z,3.13
2022-11-15T04:04:14.667Z,3.40
2022-11-15T04:05:34.820Z,3.37
2022-11-15T04:06:55.165Z,3.60
2022-11-15T04:08:14.935Z,3.50
2022-11-15T04:09:54.820Z,3.47
2022-11-15T04:11:14.975Z,3.53
2022-11-15T04:12:36.255Z,3.33
2022-11-15T04:13:56.396Z,3.53
2022-11-15T04:15:17.865Z,3.30
2022-11-15T04:16:42.492Z,3.30
2022-11-15T04:18:04.079Z,3.20
2022-11-15T04:19:42.658Z,3.50
2022-11-15T04:21:21.492Z,3.20
2022-11-15T04:23:00.312Z,3.57
2022-11-15T04:24:20.621Z,3.30
2022-11-15T04:25:40.398Z,3.17
2022-11-15T04:27:00.415Z,3.30
2022-11-15T04:28:20.703Z,3.20
2022-11-15T04:29:40.751Z,3.23
2022-11-15T04:31:00.797Z,3.27
2022-11-15T04:32:20.624Z,3.20
2022-11-15T04:33:40.517Z,2.90
2022-11-15T04:35:00.630Z,3.30
2022-11-15T04:36:39.488Z,3.17
2022-11-15T04:37:59.560Z,2.80
2022-11-15T04:39:19.276Z,3.37
2022-11-15T04:40:39.173Z,3.20
2022-11-15T04:41:59.166Z,3.20
2022-11-15T04:43:19.033Z,2.90
2022-11-15T04:44:38.994Z,3.00
2022-11-15T04:45:58.861Z,3.10
2022-11-15T04:47:19.758Z,2.80
2022-11-15T04:48:39.757Z,3.27
2022-11-15T04:49:59.792Z,2.90
2022-11-15T04:51:19.727Z,3.27
2022-11-15T04:52:44.067Z,2.77
2022-11-15T04:54:03.951Z,2.93
2022-11-15T04:55:23.814Z,3.00
2022-11-15T04:56:43.787Z,3.00
2022-11-15T04:58:03.800Z,3.20
2022-11-15T04:59:23.592Z,3.10
2022-11-15T05:00:43.418Z,2.50
2022-11-15T05:02:03.356Z,3.13
2022-11-15T05:03:42.171Z,3.10
2022-11-15T05:05:02.239Z,3.13
2022-11-15T05:06:21.932Z,3.30
2022-11-15T05:07:41.766Z,2.70
2022-11-15T05:09:01.605Z,2.87
2022-11-15T05:10:21.568Z,3.00
2022-11-15T05:11:41.714Z,2.90
2022-11-15T05:13:01.639Z,2.90
2022-11-15T05:14:21.354Z,2.97
2022-11-15T05:15:41.138Z,3.23
2022-11-15T05:17:01.025Z,3.40
2022-11-15T05:18:23.594Z,3.23
2022-11-15T05:19:43.665Z,3.47
2022-11-15T05:21:07.113Z,3.93
2022-11-15T05:22:27.564Z,3.93
2022-11-15T05:23:47.776Z,4.10
2022-11-15T05:25:07.613Z,4.20
2022-11-15T05:26:28.119Z,4.60
2022-11-15T05:27:48.294Z,4.70
2022-11-15T05:29:10.343Z,4.97
2022-11-15T05:30:30.795Z,5.03
2022-11-15T05:31:50.603Z,7.17
2022-11-15T05:33:10.444Z,6.87
2022-11-15T05:34:30.285Z,5.00
2022-11-15T05:35:53.556Z,4.07
2022-11-15T05:37:14.412Z,3.97
2022-11-15T05:38:34.619Z,3.77
2022-11-15T05:39:54.380Z,3.10
2022-11-15T05:41:15.464Z,3.37
2022-11-15T05:42:35.317Z,3.57
2022-11-15T05:43:55.451Z,3.20
2022-11-15T05:45:15.591Z,3.07
2022-11-15T05:46:37.592Z,3.17
2022-11-15T05:47:58.475Z,3.07
2022-11-15T05:49:20.308Z,3.37
2022-11-15T05:50:42.338Z,2.70
2022-11-15T05:52:04.415Z,3.07
2022-11-15T05:53:25.742Z,2.77
2022-11-15T05:54:45.715Z,3.00
2022-11-15T05:56:06.580Z,2.87
2022-11-15T05:57:26.307Z,3.50
2022-11-15T05:58:46.114Z,3.10
2022-11-15T06:00:06.403Z,3.07
2022-11-15T06:01:26.488Z,2.90
2022-11-15T06:02:46.789Z,2.87
2022-11-15T06:04:06.785Z,2.90
2022-11-15T06:05:26.541Z,2.80
2022-11-15T06:06:46.412Z,2.80
2022-11-15T06:08:06.141Z,2.83
2022-11-15T06:09:25.957Z,2.87
2022-11-15T06:10:45.817Z,2.87
2022-11-15T06:12:05.801Z,2.93
2022-11-15T06:13:25.705Z,2.87
2022-11-15T06:14:45.603Z,3.00
2022-11-15T06:16:05.598Z,3.33
2022-11-15T06:17:25.688Z,3.70
2022-11-15T06:18:45.597Z,3.80
2022-11-15T06:20:05.610Z,4.57
2022-11-15T06:21:28.771Z,4.60
2022-11-15T06:22:48.831Z,4.93
2022-11-15T06:24:08.821Z,4.93
2022-11-15T06:25:29.497Z,4.63
2022-11-15T06:26:49.891Z,4.20
2022-11-15T06:28:09.931Z,4.47
2022-11-15T06:29:29.787Z,4.77
2022-11-15T06:30:53.252Z,4.70
2022-11-15T06:32:13.165Z,5.23
2022-11-15T06:33:33.222Z,5.33
2022-11-15T06:34:53.273Z,3.87
2022-11-15T06:36:18.170Z,3.90
2022-11-15T06:37:38.568Z,3.37
2022-11-15T06:38:58.937Z,3.80
2022-11-15T06:40:18.762Z,3.43
2022-11-15T06:41:38.770Z,3.70
2022-11-15T06:42:59.553Z,3.90
2022-11-15T06:44:19.445Z,4.73
2022-11-15T06:45:39.380Z,4.30
2022-11-15T06:46:59.365Z,4.97
2022-11-15T06:48:19.369Z,4.83
2022-11-15T06:49:39.214Z,4.87
2022-11-15T06:51:00.168Z,5.80
2022-11-15T06:52:20.512Z,4.93
2022-11-15T06:53:40.417Z,4.67
2022-11-15T06:55:00.335Z,5.00
2022-11-15T06:56:20.174Z,5.37
2022-11-15T06:57:47.514Z,4.77
2022-11-15T06:59:07.777Z,4.43
2022-11-15T07:00:27.694Z,4.40
2022-11-15T07:01:47.715Z,4.47
2022-11-15T07:03:07.820Z,4.17
2022-11-15T07:04:28.018Z,4.77
2022-11-15T07:05:52.138Z,4.60
2022-11-15T07:07:11.930Z,4.20
2022-11-15T07:08:31.828Z,4.60
2022-11-15T07:09:51.697Z,5.90
2022-11-15T07:11:11.605Z,5.13
2022-11-15T07:12:31.640Z,4.63
2022-11-15T07:13:51.484Z,4.47
2022-11-15T07:15:11.411Z,4.63
2022-11-15T07:16:31.212Z,4.23
2022-11-15T07:17:51.227Z,3.77
2022-11-15T07:19:11.405Z,3.70
2022-11-15T07:20:31.105Z,3.10
2022-11-15T07:21:50.858Z,3.23
2022-11-15T07:23:10.919Z,3.23
2022-11-15T07:24:30.814Z,3.03
2022-11-15T07:25:50.708Z,3.63
2022-11-15T07:27:10.600Z,3.40
2022-11-15T07:28:30.316Z,3.20
2022-11-15T07:29:50.695Z,2.90
2022-11-15T07:31:10.369Z,3.60
2022-11-15T07:32:30.225Z,2.90
2022-11-15T07:33:49.864Z,3.57
2022-11-15T07:35:10.084Z,4.70
2022-11-15T07:36:30.741Z,4.80
2022-11-15T07:37:57.205Z,5.07
2022-11-15T07:39:17.039Z,4.03
2022-11-15T07:40:36.906Z,3.70
2022-11-15T07:42:16.953Z,3.60
2022-11-15T07:43:37.205Z,3.17
2022-11-15T07:44:57.173Z,2.90
2022-11-15T07:46:17.017Z,2.70
2022-11-15T07:47:36.816Z,2.87
2022-11-15T07:48:56.780Z,2.37
2022-11-15T07:50:17.465Z,2.90
2022-11-15T07:51:37.733Z,3.23
2022-11-15T07:52:58.453Z,3.50
2022-11-15T07:54:18.505Z,3.40
2022-11-15T07:55:40.497Z,2.97
2022-11-15T07:57:06.657Z,3.20
2022-11-15T07:58:26.906Z,3.13
2022-11-15T07:59:46.803Z,3.00
2022-11-15T08:01:07.379Z,2.90
2022-11-15T08:02:30.409Z,3.70
2022-11-15T08:03:50.875Z,3.53
2022-11-15T08:05:10.703Z,3.93
2022-11-15T08:06:31.050Z,3.50
2022-11-15T08:07:52.706Z,3.60
2022-11-15T08:09:12.592Z,3.93
2022-11-15T08:10:36.433Z,3.87
2022-11-15T08:12:00.598Z,4.00
2022-11-15T08:13:20.542Z,4.00
2022-11-15T08:14:40.217Z,4.03
2022-11-15T08:16:00.714Z,3.70
2022-11-15T08:17:20.639Z,3.43
2022-11-15T08:18:40.555Z,4.20
2022-11-15T08:20:00.625Z,5.33
2022-11-15T08:21:21.631Z,5.00
2022-11-15T08:22:41.390Z,5.73
2022-11-15T08:24:01.319Z,3.90
2022-11-15T08:25:21.172Z,3.30
2022-11-15T08:26:40.882Z,3.23
2022-11-15T08:28:02.151Z,3.10
2022-11-15T08:29:22.267Z,2.70
2022-11-15T08:30:43.560Z,2.90
2022-11-15T08:32:03.915Z,3.27
2022-11-15T08:33:23.919Z,2.87
2022-11-15T08:34:43.905Z,2.60
2022-11-15T08:36:03.968Z,3.23
2022-11-15T08:37:24.201Z,3.00
2022-11-15T08:38:44.303Z,2.90
2022-11-15T08:40:04.784Z,3.27
2022-11-15T08:41:30.683Z,2.77
2022-11-15T08:42:50.815Z,2.90
2022-11-15T08:44:10.755Z,2.73
2022-11-15T08:45:30.966Z,2.90
2022-11-15T08:46:51.229Z,2.60
2022-11-15T08:48:11.264Z,2.70
2022-11-15T08:49:31.117Z,3.00
2022-11-15T08:50:54.612Z,2.90
2022-11-15T08:52:14.923Z,3.00
2022-11-15T08:53:35.053Z,3.33
2022-11-15T08:54:54.968Z,3.13
2022-11-15T08:56:15.778Z,3.03
2022-11-15T08:57:35.732Z,2.77
2022-11-15T08:58:55.459Z,2.87
2022-11-15T09:00:15.654Z,3.03
2022-11-15T09:01:35.926Z,3.20
2022-11-15T09:02:55.876Z,2.97
2022-11-15T09:04:15.778Z,3.13
2022-11-15T09:05:36.774Z,3.20
2022-11-15T09:06:57.167Z,3.03
2022-11-15T09:08:46.201Z,3.40
2022-11-15T09:09:57.188Z,3.60
2022-11-15T09:11:18.875Z,3.50
2022-11-15T09:12:38.856Z,3.30
2022-11-15T09:13:58.855Z,3.33
2022-11-15T09:15:19.667Z,3.10
2022-11-15T09:16:39.589Z,3.27
2022-11-15T09:18:00.402Z,3.37
2022-11-15T09:19:20.475Z,3.30
2022-11-15T09:20:40.494Z,3.10
2022-11-15T09:22:00.639Z,3.10
2022-11-15T09:23:21.004Z,3.00
2022-11-15T09:24:41.166Z,3.30
2022-11-15T09:26:02.162Z,3.13
2022-11-15T09:27:21.896Z,3.10
2022-11-15T09:28:43.008Z,2.97
2022-11-15T09:30:03.164Z,2.70
2022-11-15T09:31:23.480Z,2.60
2022-11-15T09:32:43.196Z,2.67
2022-11-15T09:34:03.114Z,2.30
2022-11-15T09:35:22.798Z,2.50
2022-11-15T09:36:42.609Z,2.53
2022-11-15T09:38:02.910Z,2.50
2022-11-15T09:39:22.823Z,2.30
2022-11-15T09:40:42.800Z,2.60
2022-11-15T09:42:21.728Z,2.70
2022-11-15T09:44:00.185Z,2.43
2022-11-15T09:45:23.317Z,2.40
2022-11-15T09:46:51.676Z,2.60
2022-11-15T09:48:37.343Z,2.77
2022-11-15T09:50:10.445Z,2.50
2022-11-15T09:51:16.492Z,2.73
2022-11-15T09:52:19.419Z,3.63
2022-11-15T09:54:13.587Z,3.47
2022-11-15T09:54:55.987Z,3.80
2022-11-15T09:56:01.683Z,3.00
2022-11-15T09:57:05.934Z,2.90
2022-11-15T09:58:10.408Z,2.80
2022-11-15T09:59:17.897Z,2.80
2022-11-15T10:02:01.995Z,2.63
2022-11-15T10:03:08.819Z,2.40
2022-11-15T10:04:11.950Z,2.83
2022-11-15T10:05:15.126Z,2.53
2022-11-15T10:06:22.969Z,2.83
2022-11-15T10:07:27.498Z,2.90
2022-11-15T10:08:31.967Z,3.00
2022-11-15T10:09:39.222Z,3.10
2022-11-15T10:10:42.991Z,2.90
2022-11-15T10:11:49.419Z,2.87
2022-11-15T10:12:51.701Z,2.70
2022-11-15T10:13:54.795Z,2.70
2022-11-15T10:15:01.399Z,2.53
2022-11-15T10:16:10.492Z,2.80
2022-11-15T10:17:30.692Z,2.80
2022-11-15T10:18:32.350Z,3.13
2022-11-15T10:19:52.353Z,2.70
2022-11-15T10:20:57.656Z,2.77
2022-11-15T10:22:22.564Z,2.40
2022-11-15T10:23:24.453Z,2.10
2022-11-15T10:24:29.070Z,2.20
2022-11-15T10:25:31.688Z,2.50
2022-11-15T10:26:33.060Z,2.47
2022-11-15T10:27:34.967Z,2.40
2022-11-15T10:28:36.550Z,2.53
2022-11-15T10:29:43.055Z,2.53
2022-11-15T10:30:48.768Z,2.53
2022-11-15T10:31:50.367Z,3.23
2022-11-15T10:32:51.727Z,2.20
2022-11-15T10:34:00.527Z,2.80
2022-11-15T10:35:16.409Z,2.73
2022-11-15T10:36:17.817Z,3.10
2022-11-15T10:37:32.441Z,2.90
2022-11-15T10:38:34.203Z,2.73
2022-11-15T10:39:35.964Z,2.73
2022-11-15T10:40:38.305Z,2.50
2022-11-15T10:41:41.121Z,2.10
2022-11-15T10:42:42.404Z,2.10
2022-11-15T10:43:44.123Z,2.20
2022-11-15T10:44:45.820Z,2.50
2022-11-15T10:45:47.818Z,2.53
2022-11-15T10:46:55.279Z,2.53
2022-11-15T10:48:16.905Z,2.43
2022-11-15T10:49:18.210Z,2.30
2022-11-15T10:50:29.980Z,2.53
2022-11-15T10:51:32.013Z,2.33
2022-11-15T10:52:35.069Z,2.30
2022-11-15T10:53:45.274Z,2.70
2022-11-15T10:54:53.091Z,2.43
2022-11-15T10:55:55.811Z,2.30
2022-11-15T10:56:59.326Z,2.30
2022-11-15T10:58:05.243Z,2.27
2022-11-15T10:59:14.936Z,2.53
2022-11-15T11:00:22.067Z,2.47
2022-11-15T11:01:25.072Z,2.60
2022-11-15T11:02:40.166Z,2.40
2022-11-15T11:03:42.395Z,2.50
2022-11-15T11:04:50.306Z,2.27
2022-11-15T11:06:03.322Z,2.70
2022-11-15T11:07:20.660Z,2.33
2022-11-15T11:08:25.339Z,2.40
2022-11-15T11:09:33.145Z,2.40
2022-11-15T11:10:52.333Z,2.20
2022-11-15T11:11:56.506Z,2.20
2022-11-15T11:13:13.229Z,2.03
2022-11-15T11:14:28.723Z,2.40
2022-11-15T11:15:30.483Z,2.17
2022-11-15T11:16:42.545Z,2.50
2022-11-15T11:17:50.996Z,2.50
2022-11-15T11:18:55.343Z,2.60
2022-11-15T11:20:02.663Z,2.40
2022-11-15T11:21:08.084Z,2.77
2022-11-15T11:22:12.233Z,3.10
2022-11-15T11:23:19.657Z,2.30
2022-11-15T11:24:39.954Z,2.60
2022-11-15T11:25:47.209Z,2.20
2022-11-15T11:27:08.183Z,2.20
2022-11-15T11:28:42.115Z,2.27
2022-11-15T11:29:46.120Z,2.33
2022-11-15T11:30:53.264Z,2.27
2022-11-15T11:31:57.779Z,2.23
2022-11-15T11:33:04.752Z,2.20
2022-11-15T11:34:21.357Z,2.00
2022-11-15T11:35:37.700Z,2.37
2022-11-15T11:36:57.458Z,2.13
2022-11-15T11:38:14.668Z,2.27
2022-11-15T11:39:30.010Z,2.43
2022-11-15T11:40:35.789Z,2.30
2022-11-15T11:41:46.011Z,2.10
2022-11-15T11:43:08.294Z,2.70
2022-11-15T11:44:25.021Z,2.40
2022-11-15T11:45:26.370Z,2.10
2022-11-15T11:46:27.764Z,2.20
2022-11-15T11:47:34.553Z,2.17
2022-11-15T11:48:43.546Z,2.27
2022-11-15T11:49:48.023Z,2.27
2022-11-15T11:50:50.079Z,2.60
2022-11-15T11:51:57.212Z,2.60
2022-11-15T11:53:09.734Z,2.93
2022-11-15T11:54:14.160Z,4.20
2022-11-15T11:55:17.304Z,5.47
2022-11-15T11:56:24.848Z,5.67
2022-11-15T11:57:29.330Z,5.30
2022-11-15T11:58:38.049Z,5.10
2022-11-15T11:59:44.817Z,7.53
2022-11-15T12:00:52.161Z,5.23
2022-11-15T12:01:53.682Z,4.13
2022-11-15T12:02:58.006Z,2.87
2022-11-15T12:04:06.570Z,2.90
2022-11-15T12:05:17.098Z,3.13
2022-11-15T12:06:21.527Z,2.80
2022-11-15T12:07:28.674Z,2.80
2022-11-15T12:08:42.263Z,3.10
2022-11-15T12:10:00.590Z,3.90
2022-11-15T12:11:11.613Z,4.20
2022-11-15T12:12:19.535Z,4.00
2022-11-15T12:13:25.370Z,3.73
2022-11-15T12:14:29.821Z,4.80
2022-11-15T12:15:33.660Z,5.33
2022-11-15T12:16:35.114Z,7.73
2022-11-15T12:17:37.935Z,9.27
2022-11-15T12:18:39.406Z,12.80
2022-11-15T12:19:41.339Z,10.70
2022-11-15T12:20:49.538Z,9.63
2022-11-15T12:21:58.417Z,9.23
2022-11-15T12:23:06.871Z,7.73
2022-11-15T12:24:13.145Z,6.70
2022-11-15T12:25:17.923Z,4.47
2022-11-15T12:26:32.655Z,4.27
2022-11-15T12:27:34.043Z,5.00
2022-11-15T12:29:06.842Z,4.47
2022-11-15T12:30:17.281Z,4.10
2022-11-15T12:31:37.389Z,2.97
2022-11-15T12:32:39.334Z,3.40
2022-11-15T12:33:42.109Z,2.80
2022-11-15T12:34:46.109Z,2.73
2022-11-15T12:35:57.838Z,2.57
2022-11-15T12:36:59.201Z,2.20
2022-11-15T12:38:00.610Z,2.57
2022-11-15T12:39:06.279Z,2.40
2022-11-15T12:40:10.684Z,2.57
2022-11-15T12:41:16.748Z,2.40
2022-11-15T12:42:18.065Z,2.20
2022-11-15T12:43:41.482Z,2.70
2022-11-15T12:44:42.822Z,2.40
2022-11-15T12:45:45.322Z,2.50
2022-11-15T12:46:46.775Z,2.37
2022-11-15T12:47:48.103Z,2.10
2022-11-15T12:48:51.371Z,2.50
2022-11-15T12:49:53.181Z,2.10
2022-11-15T12:50:56.141Z,2.10
2022-11-15T12:51:57.463Z,2.30
2022-11-15T12:53:27.609Z,3.20
2022-11-15T12:54:31.679Z,3.07
2022-11-15T12:55:33.702Z,3.80
2022-11-15T12:56:35.013Z,3.07
2022-11-15T12:57:37.562Z,2.83
2022-11-15T12:58:42.360Z,2.90
2022-11-15T12:59:59.535Z,2.93
2022-11-15T13:01:01.006Z,2.87
2022-11-15T13:02:02.472Z,3.10
2022-11-15T13:03:33.088Z,3.27
2022-11-15T13:04:34.410Z,4.10
2022-11-15T13:05:35.762Z,3.00
2022-11-15T13:06:41.658Z,3.00
2022-11-15T13:07:43.028Z,3.50
2022-11-15T13:08:48.487Z,3.10
2022-11-15T13:09:53.551Z,3.50
2022-11-15T13:10:54.875Z,2.93
2022-11-15T13:11:57.300Z,3.73
2022-11-15T13:13:02.871Z,4.73
2022-11-15T13:14:24.247Z,3.60
2022-11-15T13:15:38.099Z,4.27
2022-11-15T13:16:42.698Z,4.37
2022-11-15T13:17:43.966Z,4.10
2022-11-15T13:18:53.708Z,3.70
2022-11-15T13:20:07.364Z,3.00
2022-11-15T13:21:38.208Z,3.00
2022-11-15T13:22:51.871Z,2.73
2022-11-15T13:23:54.331Z,2.80
2022-11-15T13:24:56.082Z,2.80
2022-11-15T13:26:13.101Z,3.40
2022-11-15T13:27:17.837Z,3.10
2022-11-15T13:28:21.787Z,2.57
2022-11-15T13:29:23.357Z,3.00
2022-11-15T13:30:26.032Z,3.70
2022-11-15T13:31:32.665Z,3.70
2022-11-15T13:32:33.996Z,4.03
2022-11-15T13:33:36.947Z,3.40
2022-11-15T13:34:54.062Z,2.93
2022-11-15T13:35:57.056Z,3.43
2022-11-15T13:36:58.570Z,2.63
2022-11-15T13:38:03.993Z,3.00
2022-11-15T13:39:12.867Z,3.10
2022-11-15T13:40:23.557Z,3.00
2022-11-15T13:41:26.789Z,3.70
2022-11-15T13:42:29.300Z,3.60
2022-11-15T13:43:32.911Z,4.13
2022-11-15T13:44:34.508Z,3.57
2022-11-15T13:45:36.052Z,3.67
2022-11-15T13:46:37.368Z,3.43
2022-11-15T13:47:38.699Z,3.50
2022-11-15T13:48:40.950Z,3.73
2022-11-15T13:49:42.525Z,4.30
2022-11-15T13:50:43.981Z,4.10
2022-11-15T13:51:45.338Z,4.97
2022-11-15T13:52:47.548Z,5.43
2022-11-15T13:53:55.523Z,5.27
2022-11-15T13:55:00.383Z,3.60
2022-11-15T13:56:02.706Z,3.60
2022-11-15T13:57:06.441Z,3.90
2022-11-15T13:58:10.151Z,4.20
2022-11-15T13:59:15.377Z,4.07
2022-11-15T14:00:35.356Z,3.57
2022-11-15T14:01:36.915Z,3.77
2022-11-15T14:02:38.333Z,3.60
2022-11-15T14:03:47.352Z,3.90
2022-11-15T14:05:08.928Z,3.63
2022-11-15T14:06:18.395Z,3.67
2022-11-15T14:07:21.225Z,3.33
2022-11-15T14:08:24.641Z,3.37
2022-11-15T14:09:31.589Z,4.83
2022-11-15T14:10:34.522Z,6.70
2022-11-15T14:11:36.004Z,6.60
2022-11-15T14:12:37.433Z,6.07
2022-11-15T14:13:38.882Z,5.67
2022-11-15T14:14:46.749Z,4.97
2022-11-15T14:15:48.060Z,4.83
2022-11-15T14:16:51.251Z,3.90
2022-11-15T14:17:52.586Z,3.90
2022-11-15T14:19:04.330Z,3.70
2022-11-15T14:20:26.023Z,3.20
2022-11-15T14:21:27.415Z,3.40
2022-11-15T14:22:29.869Z,3.73
2022-11-15T14:23:31.192Z,4.27
2022-11-15T14:24:32.657Z,3.50
2022-11-15T14:25:35.222Z,3.33
2022-11-15T14:26:36.583Z,3.17
2022-11-15T14:27:37.909Z,2.90
2022-11-15T14:28:40.166Z,2.97
2022-11-15T14:29:41.583Z,4.00
2022-11-15T14:30:43.930Z,4.00
2022-11-15T14:31:47.253Z,3.67
2022-11-15T14:32:49.524Z,2.83
2022-11-15T14:33:50.848Z,3.03
2022-11-15T14:35:12.694Z,3.43
2022-11-15T14:36:18.178Z,3.70
2022-11-15T14:37:21.866Z,4.33
2022-11-15T14:38:23.186Z,5.00
2022-11-15T14:39:26.070Z,4.83
2022-11-15T14:40:27.436Z,5.07
2022-11-15T14:41:28.993Z,4.30
2022-11-15T14:42:30.534Z,4.40
2022-11-15T14:43:31.988Z,4.57
2022-11-15T14:44:33.296Z,3.47
2022-11-15T14:45:34.964Z,3.67
2022-11-15T14:46:36.343Z,3.23
2022-11-15T14:47:37.795Z,3.33
2022-11-15T14:48:39.145Z,3.23
2022-11-15T14:49:40.795Z,3.23
2022-11-15T14:50:42.184Z,4.00
2022-11-15T14:51:43.598Z,3.40
2022-11-15T14:52:45.274Z,3.37
2022-11-15T14:53:47.268Z,3.63
2022-11-15T14:54:48.586Z,2.90
2022-11-15T14:55:50.022Z,2.40
2022-11-15T14:56:51.395Z,2.63
2022-11-15T14:57:53.463Z,2.77
2022-11-15T14:58:56.168Z,2.70
2022-11-15T14:59:57.811Z,2.50
2022-11-15T15:01:14.924Z,2.57
2022-11-15T15:02:23.770Z,2.50
2022-11-15T15:03:25.093Z,2.43
2022-11-15T15:04:27.054Z,3.03
2022-11-15T15:05:44.457Z,3.40
2022-11-15T15:06:46.109Z,2.43
2022-11-15T15:07:48.164Z,2.90
2022-11-15T15:08:51.427Z,3.80
2022-11-15T15:09:59.106Z,3.67
2022-11-15T15:11:15.495Z,3.47
2022-11-15T15:12:24.132Z,4.33
2022-11-15T15:13:25.492Z,3.83
2022-11-15T15:14:26.848Z,3.37
2022-11-15T15:15:33.491Z,2.93
2022-11-15T15:16:34.897Z,3.20
2022-11-15T15:17:36.243Z,2.97
2022-11-15T15:18:37.569Z,3.20
2022-11-15T15:19:39.099Z,3.03
2022-11-15T15:20:41.642Z,3.00
2022-11-15T15:21:43.195Z,2.90
2022-11-15T15:22:44.833Z,3.20
2022-11-15T15:23:46.345Z,2.90
2022-11-15T15:24:47.699Z,3.57
2022-11-15T15:25:50.076Z,3.07
2022-11-15T15:26:51.576Z,3.23
2022-11-15T15:27:53.305Z,2.97
2022-11-15T15:28:54.964Z,3.00
2022-11-15T15:29:56.399Z,2.90
2022-11-15T15:30:57.900Z,2.90
2022-11-15T15:31:59.308Z,2.70
2022-11-15T15:33:00.667Z,3.10
2022-11-15T15:34:02.344Z,2.60
2022-11-15T15:35:03.801Z,2.87
2022-11-15T15:36:05.354Z,2.90
2022-11-15T15:37:23.815Z,2.90
2022-11-15T15:38:25.211Z,3.40
2022-11-15T15:39:26.929Z,3.17
2022-11-15T15:40:29.985Z,2.93
2022-11-15T15:41:31.346Z,2.60
2022-11-15T15:42:32.680Z,3.00
2022-11-15T15:43:34.196Z,2.80
2022-11-15T15:44:35.533Z,2.97
2022-11-15T15:45:40.906Z,2.70
2022-11-15T15:46:42.254Z,2.70
2022-11-15T15:47:43.952Z,2.73
2022-11-15T15:48:47.875Z,2.90
2022-11-15T15:49:50.250Z,2.93
2022-11-15T15:50:51.632Z,3.00
2022-11-15T15:51:53.041Z,2.80
2022-11-15T15:52:57.154Z,3.10
2022-11-15T15:53:59.019Z,2.73
2022-11-15T15:55:00.360Z,2.90
2022-11-15T15:56:02.007Z,3.27
2022-11-15T15:57:03.650Z,2.90
2022-11-15T15:58:05.889Z,3.07
2022-11-15T15:59:07.268Z,2.80
2022-11-15T16:00:09.530Z,3.43
2022-11-15T16:01:13.799Z,3.43
2022-11-15T16:02:15.483Z,3.40
2022-11-15T16:03:16.829Z,3.10
2022-11-15T16:04:18.295Z,3.07
2022-11-15T16:05:19.630Z,3.20
2022-11-15T16:06:41.266Z,3.37
2022-11-15T16:07:44.201Z,3.00
2022-11-15T16:09:08.105Z,2.90
2022-11-15T16:10:30.314Z,3.10
2022-11-15T16:11:32.201Z,2.33
2022-11-15T16:12:35.282Z,2.70
2022-11-15T16:13:36.611Z,2.73
2022-11-15T16:14:37.951Z,2.80
2022-11-15T16:15:39.293Z,2.93
2022-11-15T16:16:40.765Z,3.43
2022-11-15T16:17:44.854Z,4.77
2022-11-15T16:18:46.289Z,4.90
2022-11-15T16:19:47.728Z,3.90
2022-11-15T16:20:57.356Z,3.13
2022-11-15T16:21:58.738Z,3.40
2022-11-15T16:23:05.749Z,2.73
2022-11-15T16:24:10.210Z,2.57
2022-11-15T16:25:11.555Z,3.10
2022-11-15T16:26:18.362Z,3.33
2022-11-15T16:27:20.944Z,2.90
2022-11-15T16:28:28.053Z,3.30
2022-11-15T16:29:29.597Z,2.50
2022-11-15T16:30:30.972Z,2.77
2022-11-15T16:31:32.365Z,3.23
2022-11-15T16:32:34.084Z,3.00
2022-11-15T16:33:37.976Z,2.30
2022-11-15T16:34:42.750Z,2.90
2022-11-15T16:35:46.650Z,2.70